• Join FlightAware (Why Join?)
  • Login
  • US Flag 
11:28AM EDT


 

Airport Tracker/Info


-or-


 

Live Flight TrackerFlight Track Log ✈ ASQ5685 ✈ 10-Jun-2013 ✈ KATL - KIAD

Flight Track Log - Related Links

Times and Time Zones

All times are in EDT time to prevent confusion due to time zone crossing. See the ASQ5685 flight status page for this flight to view local times or setup timezone preferences in your user account.

Time Position Orientation Groundspeed Altitude Reporting Facility
EDT Latitude Longitude Course Direction KTS MPH feet Rate Location/Type
11:51AM 33.5833 -84.5667 54° Northeast 249 287 5,600  Level Atlanta TRACON
11:52AM 33.5167 -84.5833 192° South 268 308 8,300 1,980 Climbing Atlanta TRACON
11:54AM 33.4556 -84.3625 108° East 312 359 12,500 1,620 Climbing Atlanta Center
11:55AM 33.4872 -84.2456 72° East 347 399 13,900 1,380 Climbing Atlanta Center
11:56AM 33.8146 -83.8703 54° Northeast  Level FlightAware Approximate
11:56AM 33.5564 -84.1436 51° Northeast 363 418 15,300  Level Atlanta Center
11:57AM 33.6253 -84.0389 52° Northeast 392 451 16,400 960 Climbing Atlanta Center
11:58AM 33.6878 -83.9214 57° Northeast 410 472 17,300 1,080 Climbing Atlanta Center
11:59AM 33.7356 -83.7964 65° Northeast 405 466 18,600 1,140 Climbing Atlanta Center
12:00PM 33.8125 -83.6914 49° Northeast 413 475 19,600 780 Climbing Atlanta Center
12:01PM 33.8811 -83.5883 51° Northeast 420 483 20,200 600 Climbing Atlanta Center
12:02PM 33.9600 -83.4778 49° Northeast 432 497 20,900 660 Climbing Atlanta Center
12:03PM 34.0428 -83.3669 48° Northeast 438 504 21,600 660 Climbing Atlanta Center
12:04PM 34.1214 -83.2508 51° Northeast 438 504 22,300 720 Climbing Atlanta Center
12:05PM 34.2022 -83.1372 49° Northeast 445 512 23,100 720 Climbing Atlanta Center
12:06PM 34.2806 -83.0181 51° Northeast 440 506 23,800 600 Climbing Atlanta Center
12:07PM 34.3544 -82.8989 53° Northeast 451 519 24,300 480 Climbing Atlanta Center
12:08PM 34.4283 -82.7744 54° Northeast 446 513 24,800 300 Climbing Atlanta Center
12:09PM 34.5125 -82.6397 53° Northeast 452 520 25,000 60 Climbing Atlanta Center
12:10PM 34.5903 -82.5122 53° Northeast 458 527 25,000  Level Atlanta Center
12:11PM 34.6658 -82.3819 55° Northeast 465 535 25,000 120 Level Atlanta Center
12:12PM 34.7453 -82.2492 54° Northeast 465 535 25,300 480 Climbing Atlanta Center
12:13PM 34.8228 -82.1183 54° Northeast 471 542 26,000 600 Climbing Atlanta Center
12:14PM 34.9000 -81.9900 54° Northeast 471 542 26,500 480 Climbing Atlanta Center
12:15PM 34.9769 -81.8639 53° Northeast 471 542 27,000 240 Climbing Atlanta Center
12:16PM 35.0517 -81.7247 57° Northeast 471 542 27,000  Level Atlanta Center
12:17PM 35.1306 -81.5956 53° Northeast 476 548 27,000  Level Atlanta Center
12:18PM 35.2092 -81.4586 55° Northeast 483 556 27,000  Level Atlanta Center
12:19PM 35.2856 -81.3214 56° Northeast 483 556 27,000  Level Atlanta Center
12:20PM 35.3639 -81.1839 55° Northeast 489 563 27,000  Level Atlanta Center
12:21PM 35.4417 -81.0436 56° Northeast 489 563 27,000  Level Atlanta Center
12:22PM 35.5281 -80.9103 51° Northeast 498 573 27,000  Level Atlanta Center
12:23PM 35.6167 -80.7792 50° Northeast 491 565 27,000  Level Atlanta Center
12:24PM 35.7028 -80.6503 51° Northeast 486 559 27,000  Level Atlanta Center
12:27PM 35.8961 -80.3611 50° Northeast 497 572 27,000  Level Washington Center
12:28PM 35.9847 -80.2331 49° Northeast 492 566 27,000  Level Washington Center
12:29PM 36.0689 -80.1019 52° Northeast 492 566 27,000  Level Washington Center
12:30PM 36.1592 -79.9783 48° Northeast 485 558 27,000  Level Washington Center
12:31PM 36.2431 -79.8492 51° Northeast 485 558 27,000  Level Washington Center
12:32PM 36.3206 -79.7244 52° Northeast 490 564 27,000  Level Washington Center
12:33PM 36.4131 -79.5822 51° Northeast 490 564 27,000  Level Washington Center
12:34PM 36.5008 -79.4497 50° Northeast 490 564 27,000  Level Washington Center
12:35PM 36.5733 -79.3317 53° Northeast 485 558 27,000  Level Washington Center
12:36PM 36.6589 -79.1986 51° Northeast 485 558 27,000  Level Washington Center
12:37PM 36.7461 -79.0681 50° Northeast 485 558 27,000  Level Washington Center
12:38PM 36.8400 -78.9217 51° Northeast 485 558 27,000 -600 Level Washington Center
12:39PM 36.9272 -78.7878 51° Northeast 485 558 25,800 -1,020 Descending Washington Center
12:40PM 37.0142 -78.6483 52° Northeast 485 558 25,000 -420 Descending Washington Center
12:41PM 37.1044 -78.5397 44° Northeast 490 564 25,000  Level Washington Center
12:42PM 37.2094 -78.4344 39° Northeast 485 558 25,000  Level Washington Center
12:43PM 37.3161 -78.3286 38° Northeast 485 558 25,000 -720 Level Washington Center
12:44PM 37.4269 -78.2203 38° Northeast 485 558 23,600 -1,500 Descending Washington Center
12:45PM 37.5314 -78.1139 39° Northeast 485 558 22,000 -1,680 Descending Washington Center
12:46PM 37.6339 -78.0044 40° Northeast 480 552 20,300 -1,980 Descending Washington Center
12:47PM 37.7403 -77.9000 38° Northeast 480 552 18,200 -2,100 Descending Washington Center
12:48PM 37.8403 -77.7981 39° Northeast 480 552 16,200 -2,040 Descending Washington Center
12:49PM 37.9336 -77.7006 39° Northeast 456 525 14,200 -2,040 Descending Washington Center
12:50PM 38.0228 -77.6108 38° Northeast 427 491 12,200 -1,980 Descending Washington Center
12:51PM 38.1139 -77.5208 38° Northeast 416 479 10,300 -1,080 Descending Washington Center
12:52PM 38.2008 -77.4386 37° Northeast 410 472 10,100 -120 Descending Washington Center
12:53PM 38.3017 -77.3775 25° Northeast 400 460 10,100 -180 Level Washington Center
12:54PM 38.3981 -77.3586 North 368 423 9,800 -1,320 Descending Washington Center
12:55PM 38.4875 -77.3636 357° North 331 381 7,600 -2,400 Descending Washington Center
12:56PM 38.5689 -77.3656 359° North 309 356 5,000 -1,320 Descending Washington Center
12:57PM 38.6544 -77.3647 360° North 304 350 5,000 -120 Level Washington Center
12:58PM 38.7378 -77.3614 North 304 350 4,800 -600 Descending Washington Center
12:59PM 38.8192 -77.3581 North 298 343 3,900 -1,140 Descending Washington Center
12:59PM 38.8833 -77.3500 North 289 333 3,000 -600 Descending Potomac TRACON
01:00PM 38.9667 -77.3500 360° North 288 331 3,000  Level Potomac TRACON
01:01PM 39.0333 -77.3500 360° North 283 326 3,000 -180 Level Potomac TRACON
01:02PM 39.1000 -77.3500 360° North 229 264 2,700 -300 Descending Potomac TRACON
01:03PM 39.1333 -77.3833 322° Northwest 202 232 2,500 -360 Descending Potomac TRACON
01:04PM 39.1333 -77.4500 270° West 184 212 2,000 -300 Descending Potomac TRACON
01:06PM 38.9713 -77.4587 195° South  Level Estimated
01:06PM 39.0500 -77.4500 195° South 164 189 1,700  Level Potomac TRACON
01:07PM 39.0167 -77.4667 201° Southwest 132 152 1,100 -720 Descending Potomac TRACON
01:08PM 38.9833 -77.4667 180° South 136 157 500 -720 Descending Potomac TRACON
01:10PM 38.9474 -77.4599 195° South  Level Estimated
01:17PM 38.9474 -77.4599 195° South  Level Estimated